Pic — WDB2355 — position and weather

sailwx.info

Track history (hours):
 
Tides and Currents Weather Stations Pressure Air Temp Water Temp Dewpoint Dewpoint Depression Visibility Wind Speed Wind Dir Waves Ship Positions

Pic

Owner: MARTIN OPERATING PARTNERSHIP LP, La Porte, TX. More information available from US FCC via Universal Licensing System and Coast Guard Vessel Documentation Center.

Last reported at 2018-Feb-23 08:19 UTC. Time now 2018-Feb-23 08:33 UTC.
Position N 29°46' W 095°06'.

Length 14 m; draft 2.8 m.

Type: Towing. MMSI: 366875020.

Date/timePositionNaut miles runAvg speedWind from/ knotsBaromVisibWave heightAir tempDewpointWater temp
2018-Feb-23 08:19N 29°46' W 095°06'0 0.0
2018-Feb-23 07:59N 29°46' W 095°06'0 0.0
2018-Feb-23 05:13N 29°46' W 095°06'0 0.0
2018-Feb-23 03:46N 29°46' W 095°06'0 0.0
2018-Feb-23 02:53N 29°46' W 095°06'0 0.0
2018-Feb-23 02:29N 29°46' W 095°06'0 0.0
2018-Feb-23 01:58N 29°46' W 095°06'0 0.0
2018-Feb-23 01:23N 29°46' W 095°06'0 0.0
2018-Feb-23 01:00N 29°46' W 095°06'2 0.2
2018-Feb-22 16:03N 29°44' W 095°07'2 6.4
2018-Feb-22 15:47N 29°44' W 095°08'5 5.6
2018-Feb-22 14:51N 29°43' W 095°14'5 0.9
2018-Feb-22 09:17N 29°44' W 095°09'5 4.5
2018-Feb-22 08:06N 29°44' W 095°03'1 5.6
2018-Feb-22 07:56N 29°44' W 095°02'2 4.9
2018-Feb-22 07:30N 29°42' W 095°00'3 5.2
2018-Feb-22 06:59N 29°40' W 094°58'3 5.9
2018-Feb-22 06:30N 29°37' W 094°57'3 5.7
2018-Feb-22 06:00N 29°35' W 094°56'3 5.9
2018-Feb-22 05:30N 29°32' W 094°54'3 5.8
2018-Feb-22 04:58N 29°30' W 094°52'10 0.5
2018-Feb-21 07:27N 29°21' W 094°46'0 0.0
2018-Feb-21 06:22N 29°21' W 094°46'0 0.0
2018-Feb-21 05:55N 29°21' W 094°46'0 0.1
2018-Feb-21 04:05N 29°21' W 094°46'0 0.0
2018-Feb-21 03:54N 29°21' W 094°46'0 0.0
2018-Feb-21 03:23N 29°21' W 094°46'0 0.9
2018-Feb-21 02:51N 29°21' W 094°46'2 0.2
2018-Feb-20 17:21N 29°19' W 094°47'0 0.0
2018-Feb-20 17:00N 29°19' W 094°47'0 0.0
2018-Feb-20 13:31N 29°19' W 094°47'0 0.0
2018-Feb-20 13:30N 29°19' W 094°47'0 0.0
2018-Feb-20 11:47N 29°19' W 094°47'0 0.0
2018-Feb-20 11:23N 29°19' W 094°47'0 0.0
2018-Feb-20 10:20N 29°19' W 094°47'0 0.0
2018-Feb-20 09:31N 29°19' W 094°47'0 0.0
2018-Feb-20 09:27N 29°19' W 094°47'0 0.0
2018-Feb-20 08:56N 29°19' W 094°47'0 0.0
2018-Feb-20 07:31N 29°19' W 094°47'0 0.0
2018-Feb-20 07:30N 29°19' W 094°47'0 0.0
2018-Feb-20 06:59N 29°19' W 094°47'0 0.0
2018-Feb-20 06:30N 29°19' W 094°47'0 0.0
2018-Feb-19 19:40N 29°19' W 094°47'0 0.0
2018-Feb-19 18:12N 29°19' W 094°47'0 0.0
2018-Feb-19 18:00N 29°19' W 094°47'0 0.0
2018-Feb-19 17:28N 29°19' W 094°47'0 0.0
2018-Feb-19 17:00N 29°19' W 094°47'0 0.0
2018-Feb-19 16:29N 29°19' W 094°47'0 0.0
2018-Feb-19 15:57N 29°19' W 094°47'0 0.0
2018-Feb-19 15:25N 29°19' W 094°47'0 0.0
2018-Feb-19 14:39N 29°19' W 094°47'0 0.0
2018-Feb-19 14:29N 29°19' W 094°47'0 0.0
2018-Feb-19 14:00N 29°19' W 094°47'0 0.0
2018-Feb-19 13:28N 29°19' W 094°47'0 0.0
2018-Feb-19 13:00N 29°19' W 094°47'0 0.0
2018-Feb-19 12:28N 29°19' W 094°47'0 0.0
2018-Feb-19 11:51N 29°19' W 094°47'0 0.0
2018-Feb-19 11:25N 29°19' W 094°47'0 0.0
2018-Feb-19 10:58N 29°19' W 094°47'0 0.0
2018-Feb-19 10:30N 29°19' W 094°47'0 0.0
2018-Feb-19 10:00N 29°19' W 094°47'0 0.0
2018-Feb-19 09:27N 29°19' W 094°47'0 0.0
2018-Feb-19 08:59N 29°19' W 094°47'0 0.0
2018-Feb-19 08:30N 29°19' W 094°47'0 0.0
2018-Feb-19 07:59N 29°19' W 094°47'0 0.0
2018-Feb-19 07:29N 29°19' W 094°47'0 0.0
2018-Feb-19 06:52N 29°19' W 094°47'0 0.0
2018-Feb-19 06:30N 29°19' W 094°47'0 0.0
2018-Feb-19 05:49N 29°19' W 094°47'0 0.0
2018-Feb-19 05:29N 29°19' W 094°47'0 0.0
2018-Feb-19 05:00N 29°19' W 094°47'0 0.0
2018-Feb-19 04:30N 29°19' W 094°47'0 0.0
2018-Feb-19 04:00N 29°19' W 094°47'0 0.0
2018-Feb-18 20:35N 29°19' W 094°47'0 0.3
2018-Feb-18 20:20N 29°19' W 094°47'0 0.3
2018-Feb-18 20:00N 29°19' W 094°47'0 0.1
2018-Feb-18 19:12N 29°19' W 094°47'0 0.0
2018-Feb-18 18:45N 29°19' W 094°47'0 0.0
2018-Feb-18 18:26N 29°19' W 094°47'0 0.0
2018-Feb-18 17:57N 29°19' W 094°47'0 0.0
2018-Feb-18 17:30N 29°19' W 094°47'0 0.0
2018-Feb-18 16:16N 29°19' W 094°47'0 0.0
2018-Feb-18 15:42N 29°19' W 094°47'0 0.0
2018-Feb-18 14:45N 29°19' W 094°47'0 0.0
2018-Feb-18 07:44N 29°19' W 094°47'0 0.0
2018-Feb-18 07:29N 29°19' W 094°47'0 0.0
2018-Feb-18 01:09N 29°19' W 094°47'0 0.0
2018-Feb-18 00:55N 29°19' W 094°47'0 0.0
2018-Feb-18 00:04N 29°19' W 094°47'0 0.0
2018-Feb-17 23:46N 29°19' W 094°47'0 0.0
2018-Feb-17 23:23N 29°19' W 094°47'0 0.0
2018-Feb-17 22:59N 29°19' W 094°47'0 0.0
2018-Feb-17 21:25N 29°19' W 094°47'6 0.7
2018-Feb-17 12:24N 29°25' W 094°44'0 0.0
2018-Feb-17 11:59N 29°25' W 094°44'0 0.0
2018-Feb-17 11:28N 29°25' W 094°44'0 0.0
2018-Feb-17 10:15N 29°25' W 094°44'0 0.0
2018-Feb-17 09:51N 29°25' W 094°44'0 0.1
2018-Feb-17 09:28N 29°25' W 094°44'0 0.0
2018-Feb-17 08:58N 29°25' W 094°44'0 0.0
2018-Feb-17 08:29N 29°25' W 094°44'0 0.0
2018-Feb-17 08:00N 29°25' W 094°44'0 0.0
2018-Feb-17 07:31N 29°25' W 094°44'0 0.0
2018-Feb-17 06:57N 29°25' W 094°44'0 0.0
2018-Feb-17 06:22N 29°25' W 094°44'0 0.0
2018-Feb-17 06:00N 29°25' W 094°44'0 0.0
2018-Feb-17 05:30N 29°25' W 094°44'0 0.0
2018-Feb-17 05:01N 29°25' W 094°44'0 0.0
2018-Feb-17 04:29N 29°25' W 094°44'0 0.0
2018-Feb-17 04:00N 29°25' W 094°44'0 0.0
2018-Feb-17 03:30N 29°25' W 094°44'0 0.0
2018-Feb-17 02:59N 29°25' W 094°44'0 0.0
2018-Feb-17 02:22N 29°25' W 094°44'0 0.0
2018-Feb-17 02:00N 29°25' W 094°44'0 0.0
2018-Feb-17 01:30N 29°25' W 094°44'0 0.0
2018-Feb-17 01:00N 29°25' W 094°44'0 0.0
2018-Feb-17 00:29N 29°25' W 094°44'0 0.0
2018-Feb-16 23:57N 29°25' W 094°44'0 0.0
2018-Feb-16 23:28N 29°25' W 094°44'0 0.0
2018-Feb-16 22:58N 29°25' W 094°44'0 0.0
2018-Feb-16 22:24N 29°25' W 094°44'8 0.7
2018-Feb-16 10:32N 29°22' W 094°53'0 0.0
2018-Feb-16 10:22N 29°22' W 094°53'0 0.0
2018-Feb-16 09:58N 29°22' W 094°53'0 0.0
2018-Feb-16 09:29N 29°22' W 094°53'0 0.0
2018-Feb-16 08:54N 29°22' W 094°53'0 0.0
2018-Feb-16 08:30N 29°22' W 094°53'0 0.0
2018-Feb-16 08:00N 29°22' W 094°53'0 0.0
2018-Feb-16 07:20N 29°22' W 094°53'0 0.0
2018-Feb-16 06:50N 29°22' W 094°53'0 0.0
2018-Feb-16 06:29N 29°22' W 094°53'0 0.0
2018-Feb-16 05:52N 29°22' W 094°53'0 0.0
2018-Feb-16 05:23N 29°22' W 094°53'0 0.0
2018-Feb-16 05:00N 29°22' W 094°53'0 0.0
2018-Feb-16 04:29N 29°22' W 094°53'0 0.0
2018-Feb-16 04:00N 29°22' W 094°53'0 0.0
2018-Feb-16 03:30N 29°22' W 094°53'0 0.0
2018-Feb-16 03:00N 29°22' W 094°53'0 0.0
2018-Feb-16 02:30N 29°22' W 094°53'0 0.0
2018-Feb-16 01:59N 29°22' W 094°53'0 0.0
2018-Feb-16 01:30N 29°22' W 094°53'0 0.0
2018-Feb-16 00:59N 29°22' W 094°53'1 2.3
2018-Feb-16 00:27N 29°23' W 094°52'3 7.1
2018-Feb-16 00:00N 29°22' W 094°49'3 3.9
2018-Feb-15 23:19N 29°19' W 094°47'0 0.2
2018-Feb-15 22:58N 29°19' W 094°47'0 0.0
2018-Feb-15 19:14N 29°19' W 094°47'0 0.0
2018-Feb-15 13:01N 29°19' W 094°47'0 0.0
2018-Feb-15 12:50N 29°19' W 094°47'0 0.0
2018-Feb-15 11:40N 29°19' W 094°47'0 0.0
2018-Feb-15 10:35N 29°19' W 094°47'0 0.0
2018-Feb-15 10:19N 29°19' W 094°47'0 0.0
2018-Feb-15 09:44N 29°19' W 094°47'0 0.0
2018-Feb-15 09:05N 29°19' W 094°47'0 0.0
2018-Feb-15 08:54N 29°19' W 094°47'0 0.0
2018-Feb-15 08:26N 29°19' W 094°47'0 0.0
2018-Feb-15 07:57N 29°19' W 094°47'0 0.0
2018-Feb-15 07:28N 29°19' W 094°47'0 0.0
2018-Feb-15 07:00N 29°19' W 094°47'0 0.0
2018-Feb-15 06:15N 29°19' W 094°47'0 0.0
2018-Feb-15 05:59N 29°19' W 094°47'0 0.0
2018-Feb-15 05:28N 29°19' W 094°47'0 0.0
2018-Feb-15 04:56N 29°19' W 094°47'0 0.0
2018-Feb-15 04:29N 29°19' W 094°47'0 0.0
2018-Feb-15 04:00N 29°19' W 094°47'0 0.0
2018-Feb-15 03:30N 29°19' W 094°47'0 0.0
2018-Feb-15 02:59N 29°19' W 094°47'0 0.0
2018-Feb-15 02:30N 29°19' W 094°47'0 0.0
2018-Feb-15 02:00N 29°19' W 094°47'0 0.0
2018-Feb-15 01:22N 29°19' W 094°47'0 0.0
2018-Feb-15 00:20N 29°19' W 094°47'0 0.0
2018-Feb-14 23:08N 29°19' W 094°47'0 0.0
2018-Feb-14 22:56N 29°19' W 094°47'0 0.0
2018-Feb-14 22:23N 29°19' W 094°47'0 0.0
2018-Feb-14 20:24N 29°19' W 094°47'0 0.0
2018-Feb-14 19:52N 29°19' W 094°47'0 0.0
2018-Feb-14 19:30N 29°19' W 094°47'0 0.0
2018-Feb-14 18:58N 29°19' W 094°47'0 0.0
2018-Feb-14 18:30N 29°19' W 094°47'0 0.0
2018-Feb-14 17:58N 29°19' W 094°47'0 0.0
2018-Feb-14 17:27N 29°19' W 094°47'0 0.0
2018-Feb-14 16:56N 29°19' W 094°47'0 0.0
2018-Feb-14 16:30N 29°19' W 094°47'0 0.0
2018-Feb-14 15:51N 29°19' W 094°47'0 0.0
2018-Feb-14 15:29N 29°19' W 094°47'0 0.0
2018-Feb-14 14:55N 29°19' W 094°47'0 0.0
2018-Feb-14 14:30N 29°19' W 094°47'0 0.0
2018-Feb-14 13:52N 29°19' W 094°47'0 0.0
2018-Feb-14 13:24N 29°19' W 094°47'0 0.0
2018-Feb-14 12:53N 29°19' W 094°47'  
Track history (hours):
 
Tides and Currents Weather Stations Pressure Air Temp Water Temp Dewpoint Dewpoint Depression Visibility Wind Speed Wind Dir Waves Ship Positions

Pic

Owner: MARTIN OPERATING PARTNERSHIP LP, La Porte, TX. More information available from US FCC via Universal Licensing System and Coast Guard Vessel Documentation Center.

Last reported at 2018-Feb-23 08:19 UTC. Time now 2018-Feb-23 08:33 UTC.
Position N 29°46' W 095°06'.

Length 14 m; draft 2.8 m.

Type: Towing. MMSI: 366875020.

Date/timePositionNaut miles runAvg speedWind from/ knotsBaromVisibWave heightAir tempDewpointWater temp
2018-Feb-23 08:19N 29°46' W 095°06'0 0.0
2018-Feb-23 07:59N 29°46' W 095°06'0 0.0
2018-Feb-23 05:13N 29°46' W 095°06'0 0.0
2018-Feb-23 03:46N 29°46' W 095°06'0 0.0
2018-Feb-23 02:53N 29°46' W 095°06'0 0.0
2018-Feb-23 02:29N 29°46' W 095°06'0 0.0
2018-Feb-23 01:58N 29°46' W 095°06'0 0.0
2018-Feb-23 01:23N 29°46' W 095°06'0 0.0
2018-Feb-23 01:00N 29°46' W 095°06'2 0.2
2018-Feb-22 16:03N 29°44' W 095°07'2 6.4
2018-Feb-22 15:47N 29°44' W 095°08'5 5.6
2018-Feb-22 14:51N 29°43' W 095°14'5 0.9
2018-Feb-22 09:17N 29°44' W 095°09'5 4.5
2018-Feb-22 08:06N 29°44' W 095°03'1 5.6
2018-Feb-22 07:56N 29°44' W 095°02'2 4.9
2018-Feb-22 07:30N 29°42' W 095°00'3 5.2
2018-Feb-22 06:59N 29°40' W 094°58'3 5.9
2018-Feb-22 06:30N 29°37' W 094°57'3 5.7
2018-Feb-22 06:00N 29°35' W 094°56'3 5.9
2018-Feb-22 05:30N 29°32' W 094°54'3 5.8
2018-Feb-22 04:58N 29°30' W 094°52'10 0.5
2018-Feb-21 07:27N 29°21' W 094°46'0 0.0
2018-Feb-21 06:22N 29°21' W 094°46'0 0.0
2018-Feb-21 05:55N 29°21' W 094°46'0 0.1
2018-Feb-21 04:05N 29°21' W 094°46'0 0.0
2018-Feb-21 03:54N 29°21' W 094°46'0 0.0
2018-Feb-21 03:23N 29°21' W 094°46'0 0.9
2018-Feb-21 02:51N 29°21' W 094°46'2 0.2
2018-Feb-20 17:21N 29°19' W 094°47'0 0.0
2018-Feb-20 17:00N 29°19' W 094°47'0 0.0
2018-Feb-20 13:31N 29°19' W 094°47'0 0.0
2018-Feb-20 13:30N 29°19' W 094°47'0 0.0
2018-Feb-20 11:47N 29°19' W 094°47'0 0.0
2018-Feb-20 11:23N 29°19' W 094°47'0 0.0
2018-Feb-20 10:20N 29°19' W 094°47'0 0.0
2018-Feb-20 09:31N 29°19' W 094°47'0 0.0
2018-Feb-20 09:27N 29°19' W 094°47'0 0.0
2018-Feb-20 08:56N 29°19' W 094°47'0 0.0
2018-Feb-20 07:31N 29°19' W 094°47'0 0.0
2018-Feb-20 07:30N 29°19' W 094°47'0 0.0
2018-Feb-20 06:59N 29°19' W 094°47'0 0.0
2018-Feb-20 06:30N 29°19' W 094°47'0 0.0
2018-Feb-19 19:40N 29°19' W 094°47'0 0.0
2018-Feb-19 18:12N 29°19' W 094°47'0 0.0
2018-Feb-19 18:00N 29°19' W 094°47'0 0.0
2018-Feb-19 17:28N 29°19' W 094°47'0 0.0
2018-Feb-19 17:00N 29°19' W 094°47'0 0.0
2018-Feb-19 16:29N 29°19' W 094°47'0 0.0
2018-Feb-19 15:57N 29°19' W 094°47'0 0.0
2018-Feb-19 15:25N 29°19' W 094°47'0 0.0
2018-Feb-19 14:39N 29°19' W 094°47'0 0.0
2018-Feb-19 14:29N 29°19' W 094°47'0 0.0
2018-Feb-19 14:00N 29°19' W 094°47'0 0.0
2018-Feb-19 13:28N 29°19' W 094°47'0 0.0
2018-Feb-19 13:00N 29°19' W 094°47'0 0.0
2018-Feb-19 12:28N 29°19' W 094°47'0 0.0
2018-Feb-19 11:51N 29°19' W 094°47'0 0.0
2018-Feb-19 11:25N 29°19' W 094°47'0 0.0
2018-Feb-19 10:58N 29°19' W 094°47'0 0.0
2018-Feb-19 10:30N 29°19' W 094°47'0 0.0
2018-Feb-19 10:00N 29°19' W 094°47'0 0.0
2018-Feb-19 09:27N 29°19' W 094°47'0 0.0
2018-Feb-19 08:59N 29°19' W 094°47'0 0.0
2018-Feb-19 08:30N 29°19' W 094°47'0 0.0
2018-Feb-19 07:59N 29°19' W 094°47'0 0.0
2018-Feb-19 07:29N 29°19' W 094°47'0 0.0
2018-Feb-19 06:52N 29°19' W 094°47'0 0.0
2018-Feb-19 06:30N 29°19' W 094°47'0 0.0
2018-Feb-19 05:49N 29°19' W 094°47'0 0.0
2018-Feb-19 05:29N 29°19' W 094°47'0 0.0
2018-Feb-19 05:00N 29°19' W 094°47'0 0.0
2018-Feb-19 04:30N 29°19' W 094°47'0 0.0
2018-Feb-19 04:00N 29°19' W 094°47'0 0.0
2018-Feb-18 20:35N 29°19' W 094°47'0 0.3
2018-Feb-18 20:20N 29°19' W 094°47'0 0.3
2018-Feb-18 20:00N 29°19' W 094°47'0 0.1
2018-Feb-18 19:12N 29°19' W 094°47'0 0.0
2018-Feb-18 18:45N 29°19' W 094°47'0 0.0
2018-Feb-18 18:26N 29°19' W 094°47'0 0.0
2018-Feb-18 17:57N 29°19' W 094°47'0 0.0
2018-Feb-18 17:30N 29°19' W 094°47'0 0.0
2018-Feb-18 16:16N 29°19' W 094°47'0 0.0
2018-Feb-18 15:42N 29°19' W 094°47'0 0.0
2018-Feb-18 14:45N 29°19' W 094°47'0 0.0
2018-Feb-18 07:44N 29°19' W 094°47'0 0.0
2018-Feb-18 07:29N 29°19' W 094°47'0 0.0
2018-Feb-18 01:09N 29°19' W 094°47'0 0.0
2018-Feb-18 00:55N 29°19' W 094°47'0 0.0
2018-Feb-18 00:04N 29°19' W 094°47'0 0.0
2018-Feb-17 23:46N 29°19' W 094°47'0 0.0
2018-Feb-17 23:23N 29°19' W 094°47'0 0.0
2018-Feb-17 22:59N 29°19' W 094°47'0 0.0
2018-Feb-17 21:25N 29°19' W 094°47'6 0.7
2018-Feb-17 12:24N 29°25' W 094°44'0 0.0
2018-Feb-17 11:59N 29°25' W 094°44'0 0.0
2018-Feb-17 11:28N 29°25' W 094°44'0 0.0
2018-Feb-17 10:15N 29°25' W 094°44'0 0.0
2018-Feb-17 09:51N 29°25' W 094°44'0 0.1
2018-Feb-17 09:28N 29°25' W 094°44'0 0.0
2018-Feb-17 08:58N 29°25' W 094°44'0 0.0
2018-Feb-17 08:29N 29°25' W 094°44'0 0.0
2018-Feb-17 08:00N 29°25' W 094°44'0 0.0
2018-Feb-17 07:31N 29°25' W 094°44'0 0.0
2018-Feb-17 06:57N 29°25' W 094°44'0 0.0
2018-Feb-17 06:22N 29°25' W 094°44'0 0.0
2018-Feb-17 06:00N 29°25' W 094°44'0 0.0
2018-Feb-17 05:30N 29°25' W 094°44'0 0.0
2018-Feb-17 05:01N 29°25' W 094°44'0 0.0
2018-Feb-17 04:29N 29°25' W 094°44'0 0.0
2018-Feb-17 04:00N 29°25' W 094°44'0 0.0
2018-Feb-17 03:30N 29°25' W 094°44'0 0.0
2018-Feb-17 02:59N 29°25' W 094°44'0 0.0
2018-Feb-17 02:22N 29°25' W 094°44'0 0.0
2018-Feb-17 02:00N 29°25' W 094°44'0 0.0
2018-Feb-17 01:30N 29°25' W 094°44'0 0.0
2018-Feb-17 01:00N 29°25' W 094°44'0 0.0
2018-Feb-17 00:29N 29°25' W 094°44'0 0.0
2018-Feb-16 23:57N 29°25' W 094°44'0 0.0
2018-Feb-16 23:28N 29°25' W 094°44'0 0.0
2018-Feb-16 22:58N 29°25' W 094°44'0 0.0
2018-Feb-16 22:24N 29°25' W 094°44'8 0.7
2018-Feb-16 10:32N 29°22' W 094°53'0 0.0
2018-Feb-16 10:22N 29°22' W 094°53'0 0.0
2018-Feb-16 09:58N 29°22' W 094°53'0 0.0
2018-Feb-16 09:29N 29°22' W 094°53'0 0.0
2018-Feb-16 08:54N 29°22' W 094°53'0 0.0
2018-Feb-16 08:30N 29°22' W 094°53'0 0.0
2018-Feb-16 08:00N 29°22' W 094°53'0 0.0
2018-Feb-16 07:20N 29°22' W 094°53'0 0.0
2018-Feb-16 06:50N 29°22' W 094°53'0 0.0
2018-Feb-16 06:29N 29°22' W 094°53'0 0.0
2018-Feb-16 05:52N 29°22' W 094°53'0 0.0
2018-Feb-16 05:23N 29°22' W 094°53'0 0.0
2018-Feb-16 05:00N 29°22' W 094°53'0 0.0
2018-Feb-16 04:29N 29°22' W 094°53'0 0.0
2018-Feb-16 04:00N 29°22' W 094°53'0 0.0
2018-Feb-16 03:30N 29°22' W 094°53'0 0.0
2018-Feb-16 03:00N 29°22' W 094°53'0 0.0
2018-Feb-16 02:30N 29°22' W 094°53'0 0.0
2018-Feb-16 01:59N 29°22' W 094°53'0 0.0
2018-Feb-16 01:30N 29°22' W 094°53'0 0.0
2018-Feb-16 00:59N 29°22' W 094°53'1 2.3
2018-Feb-16 00:27N 29°23' W 094°52'3 7.1
2018-Feb-16 00:00N 29°22' W 094°49'3 3.9
2018-Feb-15 23:19N 29°19' W 094°47'0 0.2
2018-Feb-15 22:58N 29°19' W 094°47'0 0.0
2018-Feb-15 19:14N 29°19' W 094°47'0 0.0
2018-Feb-15 13:01N 29°19' W 094°47'0 0.0
2018-Feb-15 12:50N 29°19' W 094°47'0 0.0
2018-Feb-15 11:40N 29°19' W 094°47'0 0.0
2018-Feb-15 10:35N 29°19' W 094°47'0 0.0
2018-Feb-15 10:19N 29°19' W 094°47'0 0.0
2018-Feb-15 09:44N 29°19' W 094°47'0 0.0
2018-Feb-15 09:05N 29°19' W 094°47'0 0.0
2018-Feb-15 08:54N 29°19' W 094°47'0 0.0
2018-Feb-15 08:26N 29°19' W 094°47'0 0.0
2018-Feb-15 07:57N 29°19' W 094°47'0 0.0
2018-Feb-15 07:28N 29°19' W 094°47'0 0.0
2018-Feb-15 07:00N 29°19' W 094°47'0 0.0
2018-Feb-15 06:15N 29°19' W 094°47'0 0.0
2018-Feb-15 05:59N 29°19' W 094°47'0 0.0
2018-Feb-15 05:28N 29°19' W 094°47'0 0.0
2018-Feb-15 04:56N 29°19' W 094°47'0 0.0
2018-Feb-15 04:29N 29°19' W 094°47'0 0.0
2018-Feb-15 04:00N 29°19' W 094°47'0 0.0
2018-Feb-15 03:30N 29°19' W 094°47'0 0.0
2018-Feb-15 02:59N 29°19' W 094°47'0 0.0
2018-Feb-15 02:30N 29°19' W 094°47'0 0.0
2018-Feb-15 02:00N 29°19' W 094°47'0 0.0
2018-Feb-15 01:22N 29°19' W 094°47'0 0.0
2018-Feb-15 00:20N 29°19' W 094°47'0 0.0
2018-Feb-14 23:08N 29°19' W 094°47'0 0.0
2018-Feb-14 22:56N 29°19' W 094°47'0 0.0
2018-Feb-14 22:23N 29°19' W 094°47'0 0.0
2018-Feb-14 20:24N 29°19' W 094°47'0 0.0
2018-Feb-14 19:52N 29°19' W 094°47'0 0.0
2018-Feb-14 19:30N 29°19' W 094°47'0 0.0
2018-Feb-14 18:58N 29°19' W 094°47'0 0.0
2018-Feb-14 18:30N 29°19' W 094°47'0 0.0
2018-Feb-14 17:58N 29°19' W 094°47'0 0.0
2018-Feb-14 17:27N 29°19' W 094°47'0 0.0
2018-Feb-14 16:56N 29°19' W 094°47'0 0.0
2018-Feb-14 16:30N 29°19' W 094°47'0 0.0
2018-Feb-14 15:51N 29°19' W 094°47'0 0.0
2018-Feb-14 15:29N 29°19' W 094°47'0 0.0
2018-Feb-14 14:55N 29°19' W 094°47'0 0.0
2018-Feb-14 14:30N 29°19' W 094°47'0 0.0
2018-Feb-14 13:52N 29°19' W 094°47'0 0.0
2018-Feb-14 13:24N 29°19' W 094°47'0 0.0
2018-Feb-14 12:53N 29°19' W 094°47'  

Dump ship's entire track history